sensor_id;sensor_type;location;lat;lon;timestamp;P1;durP1;ratioP1;P2;durP2;ratioP2
6842;SDS011;3460;52.028;8.916;2023-03-01T00:00:54;8.83;;;5.83;;
6842;SDS011;3460;52.028;8.916;2023-03-01T00:03:27;9.73;;;6.20;;
6842;SDS011;3460;52.028;8.916;2023-03-01T00:05:54;9.17;;;5.77;;
6842;SDS011;3460;52.028;8.916;2023-03-01T00:08:21;8.33;;;5.63;;
6842;SDS011;3460;52.028;8.916;2023-03-01T00:10:48;9.60;;;6.27;;
6842;SDS011;3460;52.028;8.916;2023-03-01T00:13:14;9.77;;;6.17;;
6842;SDS011;3460;52.028;8.916;2023-03-01T00:15:41;11.23;;;6.63;;
6842;SDS011;3460;52.028;8.916;2023-03-01T00:18:10;9.47;;;5.90;;
6842;SDS011;3460;52.028;8.916;2023-03-01T00:20:36;10.33;;;6.63;;
6842;SDS011;3460;52.028;8.916;2023-03-01T00:23:03;10.53;;;6.73;;
6842;SDS011;3460;52.028;8.916;2023-03-01T00:25:30;9.20;;;6.43;;
6842;SDS011;3460;52.028;8.916;2023-03-01T00:27:57;14.17;;;6.73;;
6842;SDS011;3460;52.028;8.916;2023-03-01T00:30:23;10.20;;;6.40;;
6842;SDS011;3460;52.028;8.916;2023-03-01T00:32:50;10.40;;;6.40;;
6842;SDS011;3460;52.028;8.916;2023-03-01T00:35:18;9.17;;;5.87;;
6842;SDS011;3460;52.028;8.916;2023-03-01T00:37:45;10.80;;;6.57;;
6842;SDS011;3460;52.028;8.916;2023-03-01T00:40:12;12.83;;;6.40;;
6842;SDS011;3460;52.028;8.916;2023-03-01T00:42:41;9.67;;;6.17;;
6842;SDS011;3460;52.028;8.916;2023-03-01T00:45:08;10.67;;;6.90;;
6842;SDS011;3460;52.028;8.916;2023-03-01T00:47:35;9.73;;;6.30;;
6842;SDS011;3460;52.028;8.916;2023-03-01T00:50:02;9.13;;;6.07;;
6842;SDS011;3460;52.028;8.916;2023-03-01T00:52:31;10.87;;;6.13;;
6842;SDS011;3460;52.028;8.916;2023-03-01T00:54:58;8.10;;;5.90;;
6842;SDS011;3460;52.028;8.916;2023-03-01T00:57:24;9.43;;;6.10;;
6842;SDS011;3460;52.028;8.916;2023-03-01T00:59:51;9.73;;;6.03;;
6842;SDS011;3460;52.028;8.916;2023-03-01T01:02:18;8.57;;;5.63;;
6842;SDS011;3460;52.028;8.916;2023-03-01T01:04:46;9.93;;;6.37;;
6842;SDS011;3460;52.028;8.916;2023-03-01T01:07:13;9.43;;;6.13;;
6842;SDS011;3460;52.028;8.916;2023-03-01T01:09:41;8.47;;;6.20;;
6842;SDS011;3460;52.028;8.916;2023-03-01T01:12:08;9.67;;;6.00;;
6842;SDS011;3460;52.028;8.916;2023-03-01T01:14:35;13.10;;;6.27;;
6842;SDS011;3460;52.028;8.916;2023-03-01T01:17:02;11.70;;;6.47;;
6842;SDS011;3460;52.028;8.916;2023-03-01T01:19:29;9.27;;;6.00;;
6842;SDS011;3460;52.028;8.916;2023-03-01T01:21:56;11.47;;;5.90;;
6842;SDS011;3460;52.028;8.916;2023-03-01T01:24:23;10.07;;;6.37;;
6842;SDS011;3460;52.028;8.916;2023-03-01T01:26:51;8.80;;;6.23;;
6842;SDS011;3460;52.028;8.916;2023-03-01T01:29:18;11.10;;;5.90;;
6842;SDS011;3460;52.028;8.916;2023-03-01T01:31:44;9.47;;;6.27;;
6842;SDS011;3460;52.028;8.916;2023-03-01T01:34:13;8.77;;;6.10;;
6842;SDS011;3460;52.028;8.916;2023-03-01T01:36:41;10.57;;;6.13;;
6842;SDS011;3460;52.028;8.916;2023-03-01T01:39:08;9.50;;;6.00;;
6842;SDS011;3460;52.028;8.916;2023-03-01T01:41:38;9.07;;;5.93;;
6842;SDS011;3460;52.028;8.916;2023-03-01T01:44:11;10.57;;;6.30;;
6842;SDS011;3460;52.028;8.916;2023-03-01T01:46:43;8.57;;;5.90;;
6842;SDS011;3460;52.028;8.916;2023-03-01T01:49:17;9.07;;;5.80;;
6842;SDS011;3460;52.028;8.916;2023-03-01T01:51:57;7.80;;;4.77;;
6842;SDS011;3460;52.028;8.916;2023-03-01T01:54:30;10.00;;;6.27;;
6842;SDS011;3460;52.028;8.916;2023-03-01T01:57:04;7.90;;;5.13;;
6842;SDS011;3460;52.028;8.916;2023-03-01T01:59:36;8.70;;;5.50;;
6842;SDS011;3460;52.028;8.916;2023-03-01T02:02:04;10.07;;;5.83;;
6842;SDS011;3460;52.028;8.916;2023-03-01T02:04:31;9.87;;;5.63;;
6842;SDS011;3460;52.028;8.916;2023-03-01T02:07:00;10.57;;;5.87;;
6842;SDS011;3460;52.028;8.916;2023-03-01T02:09:32;8.60;;;5.73;;
6842;SDS011;3460;52.028;8.916;2023-03-01T02:12:00;9.90;;;6.03;;
6842;SDS011;3460;52.028;8.916;2023-03-01T02:14:28;9.10;;;6.17;;
6842;SDS011;3460;52.028;8.916;2023-03-01T02:16:56;9.10;;;6.30;;
6842;SDS011;3460;52.028;8.916;2023-03-01T02:19:26;11.33;;;6.33;;
6842;SDS011;3460;52.028;8.916;2023-03-01T02:22:02;8.17;;;5.40;;
6842;SDS011;3460;52.028;8.916;2023-03-01T02:24:38;9.20;;;6.00;;
6842;SDS011;3460;52.028;8.916;2023-03-01T02:27:11;8.23;;;5.67;;
6842;SDS011;3460;52.028;8.916;2023-03-01T02:29:39;8.30;;;6.13;;
6842;SDS011;3460;52.028;8.916;2023-03-01T02:32:09;9.83;;;5.87;;
6842;SDS011;3460;52.028;8.916;2023-03-01T02:34:37;7.70;;;5.67;;
6842;SDS011;3460;52.028;8.916;2023-03-01T02:37:06;8.23;;;5.57;;
6842;SDS011;3460;52.028;8.916;2023-03-01T02:39:37;8.10;;;5.53;;
6842;SDS011;3460;52.028;8.916;2023-03-01T02:42:07;10.47;;;5.67;;
6842;SDS011;3460;52.028;8.916;2023-03-01T02:44:37;8.07;;;5.30;;
6842;SDS011;3460;52.028;8.916;2023-03-01T02:47:05;10.50;;;6.27;;
6842;SDS011;3460;52.028;8.916;2023-03-01T02:49:33;7.17;;;5.37;;
6842;SDS011;3460;52.028;8.916;2023-03-01T02:52:17;8.33;;;5.60;;
6842;SDS011;3460;52.028;8.916;2023-03-01T02:55:06;9.20;;;5.70;;
6842;SDS011;3460;52.028;8.916;2023-03-01T02:57:36;9.23;;;5.80;;
6842;SDS011;3460;52.028;8.916;2023-03-01T03:00:06;8.30;;;5.77;;
6842;SDS011;3460;52.028;8.916;2023-03-01T03:02:45;9.47;;;5.50;;
6842;SDS011;3460;52.028;8.916;2023-03-01T03:05:13;7.87;;;5.60;;
6842;SDS011;3460;52.028;8.916;2023-03-01T03:07:41;7.60;;;5.00;;
6842;SDS011;3460;52.028;8.916;2023-03-01T03:10:10;7.67;;;5.43;;
6842;SDS011;3460;52.028;8.916;2023-03-01T03:12:40;10.27;;;5.87;;
6842;SDS011;3460;52.028;8.916;2023-03-01T03:15:07;7.80;;;5.70;;
6842;SDS011;3460;52.028;8.916;2023-03-01T03:17:38;11.43;;;6.20;;
6842;SDS011;3460;52.028;8.916;2023-03-01T03:20:10;8.17;;;5.67;;
6842;SDS011;3460;52.028;8.916;2023-03-01T03:22:43;8.13;;;5.50;;
6842;SDS011;3460;52.028;8.916;2023-03-01T03:25:10;9.50;;;5.80;;
6842;SDS011;3460;52.028;8.916;2023-03-01T03:27:38;6.97;;;5.37;;
6842;SDS011;3460;52.028;8.916;2023-03-01T03:30:06;10.37;;;5.80;;
6842;SDS011;3460;52.028;8.916;2023-03-01T03:32:34;8.73;;;5.93;;
6842;SDS011;3460;52.028;8.916;2023-03-01T03:35:01;10.40;;;6.00;;
6842;SDS011;3460;52.028;8.916;2023-03-01T03:37:35;9.17;;;6.00;;
6842;SDS011;3460;52.028;8.916;2023-03-01T03:40:19;8.00;;;5.20;;
6842;SDS011;3460;52.028;8.916;2023-03-01T03:42:46;7.83;;;5.83;;
6842;SDS011;3460;52.028;8.916;2023-03-01T03:45:13;9.13;;;5.90;;
6842;SDS011;3460;52.028;8.916;2023-03-01T03:47:41;10.10;;;6.63;;
6842;SDS011;3460;52.028;8.916;2023-03-01T03:50:08;7.30;;;5.43;;
6842;SDS011;3460;52.028;8.916;2023-03-01T03:52:37;8.40;;;5.83;;
6842;SDS011;3460;52.028;8.916;2023-03-01T03:55:05;8.27;;;5.40;;
6842;SDS011;3460;52.028;8.916;2023-03-01T03:57:35;8.93;;;5.77;;
6842;SDS011;3460;52.028;8.916;2023-03-01T04:00:04;8.30;;;5.63;;
6842;SDS011;3460;52.028;8.916;2023-03-01T04:02:37;7.53;;;5.83;;
6842;SDS011;3460;52.028;8.916;2023-03-01T04:05:05;8.00;;;6.00;;
6842;SDS011;3460;52.028;8.916;2023-03-01T04:07:33;12.80;;;6.87;;
6842;SDS011;3460;52.028;8.916;2023-03-01T04:10:01;7.93;;;5.63;;
6842;SDS011;3460;52.028;8.916;2023-03-01T04:12:28;8.93;;;5.73;;
6842;SDS011;3460;52.028;8.916;2023-03-01T04:14:55;8.83;;;5.93;;
6842;SDS011;3460;52.028;8.916;2023-03-01T04:17:21;9.47;;;5.70;;
6842;SDS011;3460;52.028;8.916;2023-03-01T04:19:48;9.33;;;6.43;;
6842;SDS011;3460;52.028;8.916;2023-03-01T04:22:15;11.10;;;6.10;;
6842;SDS011;3460;52.028;8.916;2023-03-01T04:24:43;11.40;;;6.60;;
6842;SDS011;3460;52.028;8.916;2023-03-01T04:27:11;8.33;;;5.90;;
6842;SDS011;3460;52.028;8.916;2023-03-01T04:29:38;8.63;;;5.83;;
6842;SDS011;3460;52.028;8.916;2023-03-01T04:32:05;8.90;;;5.90;;
6842;SDS011;3460;52.028;8.916;2023-03-01T04:34:31;8.43;;;5.60;;
6842;SDS011;3460;52.028;8.916;2023-03-01T04:36:58;8.80;;;5.93;;
6842;SDS011;3460;52.028;8.916;2023-03-01T04:39:25;9.93;;;6.00;;
6842;SDS011;3460;52.028;8.916;2023-03-01T04:41:52;8.20;;;5.93;;
6842;SDS011;3460;52.028;8.916;2023-03-01T04:44:20;10.93;;;5.97;;
6842;SDS011;3460;52.028;8.916;2023-03-01T04:46:48;7.40;;;5.27;;
6842;SDS011;3460;52.028;8.916;2023-03-01T04:49:15;12.10;;;5.97;;
6842;SDS011;3460;52.028;8.916;2023-03-01T04:51:42;8.03;;;5.00;;
6842;SDS011;3460;52.028;8.916;2023-03-01T04:54:09;7.63;;;5.67;;
6842;SDS011;3460;52.028;8.916;2023-03-01T04:56:36;12.27;;;5.93;;
6842;SDS011;3460;52.028;8.916;2023-03-01T04:59:02;8.20;;;5.70;;
6842;SDS011;3460;52.028;8.916;2023-03-01T05:01:32;9.40;;;6.03;;
6842;SDS011;3460;52.028;8.916;2023-03-01T05:04:00;8.80;;;5.47;;
6842;SDS011;3460;52.028;8.916;2023-03-01T05:06:30;7.63;;;5.60;;
6842;SDS011;3460;52.028;8.916;2023-03-01T05:08:57;9.77;;;5.50;;
6842;SDS011;3460;52.028;8.916;2023-03-01T05:11:24;12.33;;;7.47;;
6842;SDS011;3460;52.028;8.916;2023-03-01T05:13:53;11.10;;;7.27;;
6842;SDS011;3460;52.028;8.916;2023-03-01T05:16:20;13.50;;;6.90;;
6842;SDS011;3460;52.028;8.916;2023-03-01T05:18:48;12.30;;;7.30;;
6842;SDS011;3460;52.028;8.916;2023-03-01T05:21:16;11.40;;;6.77;;
6842;SDS011;3460;52.028;8.916;2023-03-01T05:23:43;10.73;;;6.70;;
6842;SDS011;3460;52.028;8.916;2023-03-01T05:26:11;11.13;;;7.17;;
6842;SDS011;3460;52.028;8.916;2023-03-01T05:28:39;11.00;;;7.13;;
6842;SDS011;3460;52.028;8.916;2023-03-01T05:31:06;12.17;;;7.83;;
6842;SDS011;3460;52.028;8.916;2023-03-01T05:33:35;10.60;;;6.83;;
6842;SDS011;3460;52.028;8.916;2023-03-01T05:36:04;8.17;;;5.57;;
6842;SDS011;3460;52.028;8.916;2023-03-01T05:38:32;10.67;;;6.10;;
6842;SDS011;3460;52.028;8.916;2023-03-01T05:40:59;8.57;;;5.80;;
6842;SDS011;3460;52.028;8.916;2023-03-01T05:43:26;9.23;;;6.07;;
6842;SDS011;3460;52.028;8.916;2023-03-01T05:45:59;9.90;;;6.10;;
6842;SDS011;3460;52.028;8.916;2023-03-01T05:48:26;10.27;;;6.37;;
6842;SDS011;3460;52.028;8.916;2023-03-01T05:50:53;9.73;;;6.03;;
6842;SDS011;3460;52.028;8.916;2023-03-01T05:53:21;9.30;;;6.20;;
6842;SDS011;3460;52.028;8.916;2023-03-01T05:55:48;7.83;;;5.47;;
6842;SDS011;3460;52.028;8.916;2023-03-01T05:58:16;8.53;;;5.47;;
6842;SDS011;3460;52.028;8.916;2023-03-01T06:00:44;9.97;;;6.20;;
6842;SDS011;3460;52.028;8.916;2023-03-01T06:03:13;8.43;;;7.03;;
6842;SDS011;3460;52.028;8.916;2023-03-01T06:05:41;13.07;;;6.97;;
6842;SDS011;3460;52.028;8.916;2023-03-01T06:08:08;13.30;;;8.63;;
6842;SDS011;3460;52.028;8.916;2023-03-01T06:10:38;14.90;;;8.90;;
6842;SDS011;3460;52.028;8.916;2023-03-01T06:13:05;15.40;;;9.30;;
6842;SDS011;3460;52.028;8.916;2023-03-01T06:15:32;14.67;;;8.77;;
6842;SDS011;3460;52.028;8.916;2023-03-01T06:17:59;13.77;;;8.27;;
6842;SDS011;3460;52.028;8.916;2023-03-01T06:20:26;16.37;;;8.57;;
6842;SDS011;3460;52.028;8.916;2023-03-01T06:22:54;17.43;;;8.20;;
6842;SDS011;3460;52.028;8.916;2023-03-01T06:25:22;13.30;;;7.77;;
6842;SDS011;3460;52.028;8.916;2023-03-01T06:27:52;11.93;;;7.43;;
6842;SDS011;3460;52.028;8.916;2023-03-01T06:30:20;10.90;;;6.80;;
6842;SDS011;3460;52.028;8.916;2023-03-01T06:32:48;10.93;;;6.97;;
6842;SDS011;3460;52.028;8.916;2023-03-01T06:35:15;11.83;;;7.53;;
6842;SDS011;3460;52.028;8.916;2023-03-01T06:37:43;10.53;;;6.77;;
6842;SDS011;3460;52.028;8.916;2023-03-01T06:40:11;10.20;;;6.40;;
6842;SDS011;3460;52.028;8.916;2023-03-01T06:42:39;10.27;;;6.77;;
6842;SDS011;3460;52.028;8.916;2023-03-01T06:45:09;11.37;;;7.27;;
6842;SDS011;3460;52.028;8.916;2023-03-01T06:47:36;11.60;;;7.07;;
6842;SDS011;3460;52.028;8.916;2023-03-01T06:50:03;10.93;;;7.03;;
6842;SDS011;3460;52.028;8.916;2023-03-01T06:52:30;10.80;;;7.10;;
6842;SDS011;3460;52.028;8.916;2023-03-01T06:54:57;10.03;;;6.17;;
6842;SDS011;3460;52.028;8.916;2023-03-01T06:57:24;11.83;;;6.40;;
6842;SDS011;3460;52.028;8.916;2023-03-01T06:59:51;9.00;;;6.10;;
6842;SDS011;3460;52.028;8.916;2023-03-01T07:02:19;11.67;;;6.97;;
6842;SDS011;3460;52.028;8.916;2023-03-01T07:04:46;10.97;;;6.60;;
6842;SDS011;3460;52.028;8.916;2023-03-01T07:07:14;8.80;;;6.90;;
6842;SDS011;3460;52.028;8.916;2023-03-01T07:09:42;11.57;;;7.20;;
6842;SDS011;3460;52.028;8.916;2023-03-01T07:12:09;11.83;;;7.17;;
6842;SDS011;3460;52.028;8.916;2023-03-01T07:14:36;13.30;;;8.43;;
6842;SDS011;3460;52.028;8.916;2023-03-01T07:17:03;12.23;;;7.43;;
6842;SDS011;3460;52.028;8.916;2023-03-01T07:19:31;9.73;;;6.73;;
6842;SDS011;3460;52.028;8.916;2023-03-01T07:21:58;10.73;;;7.43;;
6842;SDS011;3460;52.028;8.916;2023-03-01T07:24:25;16.50;;;10.33;;
6842;SDS011;3460;52.028;8.916;2023-03-01T07:26:52;18.10;;;10.00;;
6842;SDS011;3460;52.028;8.916;2023-03-01T07:29:19;20.10;;;10.07;;
6842;SDS011;3460;52.028;8.916;2023-03-01T07:31:46;12.60;;;8.97;;
6842;SDS011;3460;52.028;8.916;2023-03-01T07:34:13;15.83;;;8.90;;
6842;SDS011;3460;52.028;8.916;2023-03-01T07:36:41;10.67;;;8.03;;
6842;SDS011;3460;52.028;8.916;2023-03-01T07:39:10;11.57;;;7.57;;
6842;SDS011;3460;52.028;8.916;2023-03-01T07:41:37;12.10;;;7.60;;
6842;SDS011;3460;52.028;8.916;2023-03-01T07:44:04;12.10;;;7.13;;
6842;SDS011;3460;52.028;8.916;2023-03-01T07:46:32;14.17;;;7.17;;
6842;SDS011;3460;52.028;8.916;2023-03-01T07:48:59;10.77;;;7.37;;
6842;SDS011;3460;52.028;8.916;2023-03-01T07:51:26;10.67;;;6.80;;
6842;SDS011;3460;52.028;8.916;2023-03-01T07:53:54;9.40;;;7.03;;
6842;SDS011;3460;52.028;8.916;2023-03-01T07:56:21;10.27;;;6.67;;
6842;SDS011;3460;52.028;8.916;2023-03-01T07:58:47;13.10;;;7.57;;
6842;SDS011;3460;52.028;8.916;2023-03-01T08:01:15;10.70;;;7.43;;
6842;SDS011;3460;52.028;8.916;2023-03-01T08:03:43;10.60;;;6.53;;
6842;SDS011;3460;52.028;8.916;2023-03-01T08:06:10;10.63;;;6.50;;
6842;SDS011;3460;52.028;8.916;2023-03-01T08:08:38;13.10;;;7.23;;
6842;SDS011;3460;52.028;8.916;2023-03-01T08:11:07;14.33;;;8.67;;
6842;SDS011;3460;52.028;8.916;2023-03-01T08:13:35;17.67;;;8.40;;
6842;SDS011;3460;52.028;8.916;2023-03-01T08:16:02;11.33;;;7.33;;
6842;SDS011;3460;52.028;8.916;2023-03-01T08:18:31;11.63;;;8.27;;
6842;SDS011;3460;52.028;8.916;2023-03-01T08:21:00;9.97;;;6.73;;
6842;SDS011;3460;52.028;8.916;2023-03-01T08:23:28;12.90;;;8.03;;
6842;SDS011;3460;52.028;8.916;2023-03-01T08:26:02;11.67;;;7.43;;
6842;SDS011;3460;52.028;8.916;2023-03-01T08:28:32;17.03;;;8.73;;
6842;SDS011;3460;52.028;8.916;2023-03-01T08:30:59;13.20;;;8.83;;
6842;SDS011;3460;52.028;8.916;2023-03-01T08:33:26;12.13;;;8.50;;
6842;SDS011;3460;52.028;8.916;2023-03-01T08:36:01;13.00;;;8.17;;
6842;SDS011;3460;52.028;8.916;2023-03-01T08:38:28;12.60;;;7.73;;
6842;SDS011;3460;52.028;8.916;2023-03-01T08:40:58;11.57;;;7.60;;
6842;SDS011;3460;52.028;8.916;2023-03-01T08:43:26;11.37;;;7.90;;
6842;SDS011;3460;52.028;8.916;2023-03-01T08:45:54;11.63;;;7.77;;
6842;SDS011;3460;52.028;8.916;2023-03-01T08:48:21;13.97;;;7.90;;
6842;SDS011;3460;52.028;8.916;2023-03-01T08:50:48;11.77;;;7.87;;
6842;SDS011;3460;52.028;8.916;2023-03-01T08:53:14;10.70;;;7.10;;
6842;SDS011;3460;52.028;8.916;2023-03-01T08:55:41;17.67;;;7.40;;
6842;SDS011;3460;52.028;8.916;2023-03-01T08:58:08;12.23;;;7.97;;
6842;SDS011;3460;52.028;8.916;2023-03-01T09:00:35;10.40;;;7.10;;
6842;SDS011;3460;52.028;8.916;2023-03-01T09:03:03;11.77;;;7.43;;
6842;SDS011;3460;52.028;8.916;2023-03-01T09:05:31;11.30;;;7.57;;
6842;SDS011;3460;52.028;8.916;2023-03-01T09:07:58;11.63;;;7.80;;
6842;SDS011;3460;52.028;8.916;2023-03-01T09:10:25;12.57;;;7.73;;
6842;SDS011;3460;52.028;8.916;2023-03-01T09:12:51;11.80;;;8.40;;
6842;SDS011;3460;52.028;8.916;2023-03-01T09:15:18;14.50;;;7.83;;
6842;SDS011;3460;52.028;8.916;2023-03-01T09:17:45;12.53;;;7.73;;
6842;SDS011;3460;52.028;8.916;2023-03-01T09:20:13;11.50;;;7.33;;
6842;SDS011;3460;52.028;8.916;2023-03-01T09:22:40;12.00;;;7.77;;
6842;SDS011;3460;52.028;8.916;2023-03-01T09:25:07;14.00;;;8.50;;
6842;SDS011;3460;52.028;8.916;2023-03-01T09:27:34;10.47;;;6.63;;
6842;SDS011;3460;52.028;8.916;2023-03-01T09:30:01;10.87;;;7.83;;
6842;SDS011;3460;52.028;8.916;2023-03-01T09:32:30;11.33;;;7.70;;
6842;SDS011;3460;52.028;8.916;2023-03-01T09:34:57;8.97;;;6.83;;
6842;SDS011;3460;52.028;8.916;2023-03-01T09:37:31;11.07;;;6.90;;
6842;SDS011;3460;52.028;8.916;2023-03-01T09:39:58;11.13;;;7.77;;
6842;SDS011;3460;52.028;8.916;2023-03-01T09:42:25;10.77;;;6.53;;
6842;SDS011;3460;52.028;8.916;2023-03-01T09:44:57;10.37;;;6.80;;
6842;SDS011;3460;52.028;8.916;2023-03-01T09:47:28;9.07;;;6.17;;
6842;SDS011;3460;52.028;8.916;2023-03-01T09:49:58;13.03;;;5.87;;
6842;SDS011;3460;52.028;8.916;2023-03-01T09:52:34;7.33;;;4.73;;
6842;SDS011;3460;52.028;8.916;2023-03-01T09:55:08;9.13;;;4.93;;
6842;SDS011;3460;52.028;8.916;2023-03-01T09:57:39;9.13;;;5.20;;
6842;SDS011;3460;52.028;8.916;2023-03-01T10:00:14;6.90;;;4.63;;
6842;SDS011;3460;52.028;8.916;2023-03-01T10:02:49;9.07;;;4.97;;
6842;SDS011;3460;52.028;8.916;2023-03-01T10:05:31;7.30;;;4.53;;
6842;SDS011;3460;52.028;8.916;2023-03-01T10:08:13;12.10;;;4.90;;
6842;SDS011;3460;52.028;8.916;2023-03-01T10:10:52;7.80;;;4.27;;
6842;SDS011;3460;52.028;8.916;2023-03-01T10:13:20;6.80;;;4.60;;
6842;SDS011;3460;52.028;8.916;2023-03-01T10:15:52;7.17;;;4.17;;
6842;SDS011;3460;52.028;8.916;2023-03-01T10:18:24;5.13;;;3.70;;
6842;SDS011;3460;52.028;8.916;2023-03-01T10:20:54;5.17;;;3.57;;
6842;SDS011;3460;52.028;8.916;2023-03-01T10:23:25;7.47;;;4.70;;
6842;SDS011;3460;52.028;8.916;2023-03-01T10:26:01;8.07;;;4.73;;
6842;SDS011;3460;52.028;8.916;2023-03-01T10:28:37;8.33;;;4.93;;
6842;SDS011;3460;52.028;8.916;2023-03-01T10:31:13;7.73;;;4.70;;
6842;SDS011;3460;52.028;8.916;2023-03-01T10:33:45;9.00;;;4.73;;
6842;SDS011;3460;52.028;8.916;2023-03-01T10:36:12;8.97;;;5.20;;
6842;SDS011;3460;52.028;8.916;2023-03-01T10:38:51;8.67;;;4.70;;
6842;SDS011;3460;52.028;8.916;2023-03-01T10:41:19;10.57;;;5.30;;
6842;SDS011;3460;52.028;8.916;2023-03-01T10:43:49;7.30;;;4.43;;
6842;SDS011;3460;52.028;8.916;2023-03-01T10:46:22;7.30;;;4.90;;
6842;SDS011;3460;52.028;8.916;2023-03-01T10:49:00;6.43;;;4.50;;
6842;SDS011;3460;52.028;8.916;2023-03-01T10:51:33;6.33;;;4.47;;
6842;SDS011;3460;52.028;8.916;2023-03-01T10:54:01;7.43;;;4.47;;
6842;SDS011;3460;52.028;8.916;2023-03-01T10:56:29;7.60;;;4.40;;
6842;SDS011;3460;52.028;8.916;2023-03-01T10:59:19;9.13;;;4.60;;
6842;SDS011;3460;52.028;8.916;2023-03-01T11:04:58;5.40;;;4.10;;
6842;SDS011;3460;52.028;8.916;2023-03-01T11:07:26;4.63;;;4.00;;
6842;SDS011;3460;52.028;8.916;2023-03-01T11:09:54;9.23;;;4.00;;
6842;SDS011;3460;52.028;8.916;2023-03-01T11:12:21;5.53;;;4.10;;
6842;SDS011;3460;52.028;8.916;2023-03-01T11:14:49;5.57;;;3.80;;
6842;SDS011;3460;52.028;8.916;2023-03-01T11:17:18;6.97;;;3.80;;
6842;SDS011;3460;52.028;8.916;2023-03-01T11:19:59;8.83;;;4.87;;
6842;SDS011;3460;52.028;8.916;2023-03-01T11:22:27;6.93;;;4.50;;
6842;SDS011;3460;52.028;8.916;2023-03-01T11:24:58;5.57;;;4.03;;
6842;SDS011;3460;52.028;8.916;2023-03-01T11:27:26;6.50;;;4.37;;
6842;SDS011;3460;52.028;8.916;2023-03-01T11:29:55;7.90;;;4.27;;
6842;SDS011;3460;52.028;8.916;2023-03-01T11:32:27;8.60;;;5.00;;
6842;SDS011;3460;52.028;8.916;2023-03-01T11:35:00;6.70;;;3.90;;
6842;SDS011;3460;52.028;8.916;2023-03-01T11:37:32;7.33;;;4.77;;
6842;SDS011;3460;52.028;8.916;2023-03-01T11:40:10;9.97;;;5.00;;
6842;SDS011;3460;52.028;8.916;2023-03-01T11:42:44;6.53;;;4.20;;
6842;SDS011;3460;52.028;8.916;2023-03-01T11:45:19;6.70;;;3.90;;
6842;SDS011;3460;52.028;8.916;2023-03-01T11:48:06;7.57;;;4.17;;
6842;SDS011;3460;52.028;8.916;2023-03-01T11:50:52;7.20;;;3.67;;
6842;SDS011;3460;52.028;8.916;2023-03-01T11:53:27;6.53;;;3.73;;
6842;SDS011;3460;52.028;8.916;2023-03-01T11:56:18;7.37;;;4.07;;
6842;SDS011;3460;52.028;8.916;2023-03-01T11:59:00;6.27;;;3.83;;
6842;SDS011;3460;52.028;8.916;2023-03-01T12:01:40;5.67;;;3.30;;
6842;SDS011;3460;52.028;8.916;2023-03-01T12:04:33;5.60;;;3.60;;
6842;SDS011;3460;52.028;8.916;2023-03-01T12:07:15;5.27;;;3.47;;
6842;SDS011;3460;52.028;8.916;2023-03-01T12:09:50;5.40;;;3.37;;
6842;SDS011;3460;52.028;8.916;2023-03-01T12:12:39;6.83;;;3.60;;
6842;SDS011;3460;52.028;8.916;2023-03-01T12:15:26;5.27;;;3.50;;
6842;SDS011;3460;52.028;8.916;2023-03-01T12:18:17;7.13;;;3.60;;
6842;SDS011;3460;52.028;8.916;2023-03-01T12:21:05;6.03;;;3.50;;
6842;SDS011;3460;52.028;8.916;2023-03-01T12:26:50;6.20;;;3.83;;
6842;SDS011;3460;52.028;8.916;2023-03-01T12:29:31;5.67;;;3.57;;
6842;SDS011;3460;52.028;8.916;2023-03-01T12:38:01;7.53;;;4.10;;
6842;SDS011;3460;52.028;8.916;2023-03-01T12:40:43;5.70;;;3.50;;
6842;SDS011;3460;52.028;8.916;2023-03-01T12:43:22;5.73;;;3.43;;
6842;SDS011;3460;52.028;8.916;2023-03-01T12:48:56;5.03;;;3.77;;
6842;SDS011;3460;52.028;8.916;2023-03-01T12:51:32;6.27;;;3.63;;
6842;SDS011;3460;52.028;8.916;2023-03-01T12:54:01;6.20;;;3.73;;
6842;SDS011;3460;52.028;8.916;2023-03-01T12:56:37;6.93;;;4.10;;
6842;SDS011;3460;52.028;8.916;2023-03-01T12:59:07;7.93;;;4.00;;
6842;SDS011;3460;52.028;8.916;2023-03-01T13:01:45;8.47;;;4.00;;
6842;SDS011;3460;52.028;8.916;2023-03-01T13:04:23;5.87;;;3.77;;
6842;SDS011;3460;52.028;8.916;2023-03-01T13:07:04;6.70;;;4.00;;
6842;SDS011;3460;52.028;8.916;2023-03-01T13:09:51;5.83;;;3.83;;
6842;SDS011;3460;52.028;8.916;2023-03-01T13:15:32;4.57;;;3.33;;
6842;SDS011;3460;52.028;8.916;2023-03-01T13:18:03;4.87;;;2.93;;
6842;SDS011;3460;52.028;8.916;2023-03-01T13:20:51;7.67;;;3.57;;
6842;SDS011;3460;52.028;8.916;2023-03-01T13:23:27;8.03;;;3.77;;
6842;SDS011;3460;52.028;8.916;2023-03-01T13:26:00;5.83;;;3.40;;
6842;SDS011;3460;52.028;8.916;2023-03-01T13:28:41;6.03;;;3.50;;
6842;SDS011;3460;52.028;8.916;2023-03-01T13:37:21;5.27;;;3.30;;
6842;SDS011;3460;52.028;8.916;2023-03-01T13:39:55;6.50;;;4.00;;
6842;SDS011;3460;52.028;8.916;2023-03-01T13:42:31;4.97;;;3.40;;
6842;SDS011;3460;52.028;8.916;2023-03-01T13:47:53;4.73;;;3.83;;
6842;SDS011;3460;52.028;8.916;2023-03-01T13:50:25;9.53;;;3.70;;
6842;SDS011;3460;52.028;8.916;2023-03-01T13:52:59;5.13;;;3.40;;
6842;SDS011;3460;52.028;8.916;2023-03-01T13:55:34;6.00;;;3.87;;
6842;SDS011;3460;52.028;8.916;2023-03-01T13:58:04;6.07;;;3.30;;
6842;SDS011;3460;52.028;8.916;2023-03-01T14:00:41;6.47;;;3.80;;
6842;SDS011;3460;52.028;8.916;2023-03-01T14:03:09;6.87;;;4.43;;
6842;SDS011;3460;52.028;8.916;2023-03-01T14:05:40;8.07;;;4.07;;
6842;SDS011;3460;52.028;8.916;2023-03-01T14:08:19;6.60;;;3.53;;
6842;SDS011;3460;52.028;8.916;2023-03-01T14:13:54;5.43;;;3.87;;
6842;SDS011;3460;52.028;8.916;2023-03-01T14:16:33;6.70;;;4.00;;
6842;SDS011;3460;52.028;8.916;2023-03-01T14:19:12;5.67;;;4.20;;
6842;SDS011;3460;52.028;8.916;2023-03-01T14:21:45;5.27;;;4.00;;
6842;SDS011;3460;52.028;8.916;2023-03-01T14:24:20;5.87;;;3.77;;
6842;SDS011;3460;52.028;8.916;2023-03-01T14:26:48;5.63;;;3.93;;
6842;SDS011;3460;52.028;8.916;2023-03-01T14:29:23;5.93;;;3.77;;
6842;SDS011;3460;52.028;8.916;2023-03-01T14:31:51;8.00;;;4.27;;
6842;SDS011;3460;52.028;8.916;2023-03-01T14:34:19;10.93;;;4.10;;
6842;SDS011;3460;52.028;8.916;2023-03-01T14:36:48;7.50;;;4.13;;
6842;SDS011;3460;52.028;8.916;2023-03-01T14:39:16;7.27;;;4.30;;
6842;SDS011;3460;52.028;8.916;2023-03-01T14:41:45;7.67;;;5.07;;
6842;SDS011;3460;52.028;8.916;2023-03-01T14:44:12;6.60;;;4.03;;
6842;SDS011;3460;52.028;8.916;2023-03-01T14:46:43;5.80;;;4.20;;
6842;SDS011;3460;52.028;8.916;2023-03-01T14:49:12;6.57;;;4.20;;
6842;SDS011;3460;52.028;8.916;2023-03-01T14:51:42;5.37;;;3.70;;
6842;SDS011;3460;52.028;8.916;2023-03-01T14:54:21;6.27;;;3.60;;
6842;SDS011;3460;52.028;8.916;2023-03-01T14:56:52;4.97;;;3.90;;
6842;SDS011;3460;52.028;8.916;2023-03-01T14:59:21;6.23;;;3.37;;
6842;SDS011;3460;52.028;8.916;2023-03-01T15:01:49;6.77;;;3.53;;
6842;SDS011;3460;52.028;8.916;2023-03-01T15:04:16;4.97;;;3.83;;
6842;SDS011;3460;52.028;8.916;2023-03-01T15:06:45;5.00;;;3.90;;
6842;SDS011;3460;52.028;8.916;2023-03-01T15:09:14;5.93;;;3.50;;
6842;SDS011;3460;52.028;8.916;2023-03-01T15:11:44;8.03;;;3.80;;
6842;SDS011;3460;52.028;8.916;2023-03-01T15:14:38;4.73;;;3.50;;
6842;SDS011;3460;52.028;8.916;2023-03-01T15:17:20;5.40;;;3.67;;
6842;SDS011;3460;52.028;8.916;2023-03-01T15:19:56;5.23;;;3.40;;
6842;SDS011;3460;52.028;8.916;2023-03-01T15:22:24;6.17;;;4.00;;
6842;SDS011;3460;52.028;8.916;2023-03-01T15:24:52;6.60;;;4.07;;
6842;SDS011;3460;52.028;8.916;2023-03-01T15:27:22;5.13;;;3.40;;
6842;SDS011;3460;52.028;8.916;2023-03-01T15:29:50;5.60;;;3.20;;
6842;SDS011;3460;52.028;8.916;2023-03-01T15:32:25;7.63;;;3.43;;
6842;SDS011;3460;52.028;8.916;2023-03-01T15:34:53;5.97;;;3.40;;
6842;SDS011;3460;52.028;8.916;2023-03-01T15:37:38;5.43;;;3.40;;
6842;SDS011;3460;52.028;8.916;2023-03-01T15:40:17;4.63;;;3.23;;
6842;SDS011;3460;52.028;8.916;2023-03-01T15:42:46;4.87;;;3.33;;
6842;SDS011;3460;52.028;8.916;2023-03-01T15:45:20;4.30;;;3.53;;
6842;SDS011;3460;52.028;8.916;2023-03-01T15:47:49;4.30;;;3.13;;
6842;SDS011;3460;52.028;8.916;2023-03-01T15:50:19;5.10;;;3.23;;
6842;SDS011;3460;52.028;8.916;2023-03-01T15:52:48;5.10;;;3.70;;
6842;SDS011;3460;52.028;8.916;2023-03-01T15:55:17;5.93;;;3.70;;
6842;SDS011;3460;52.028;8.916;2023-03-01T15:57:46;4.27;;;3.13;;
6842;SDS011;3460;52.028;8.916;2023-03-01T16:00:14;8.20;;;3.60;;